Mereta, Texas
Current Conditions -  °F | °C
As of 11:51 AM on Monday 26 Jan 2015 (Local Time) from KSJT Reporting Station
Clear Clear  
Wind Chill: 59°   Ceiling: Unl
Heat Index: 59°   Visibility: 10mi
Dew Point: 39°   Wind: 8mph
Humidity: 48%   Direction: 250°WSW
Pressure: 30.29"   Gusts: NA
Location:  31.46°N, 100.14°W
Report Text: KSJT 261751Z 25007KT 10SM CLR 15/04 A3029 RMK AO2 SLP258 T01500039 10150 20017 50002
Loading
Personal Weather Stations






























Interactive Weather Map New forecast layout! Learn more

10-Day Weather Forecast

Advertisements
Track Severe Weather on mobile